createdAt,value
2023-04-24T00:00:34.079Z,2.72
2023-04-24T00:03:02.078Z,2.92
2023-04-24T00:05:30.102Z,2.53
2023-04-24T00:07:57.969Z,2.60
2023-04-24T00:10:25.815Z,2.83
2023-04-24T00:12:55.262Z,2.60
2023-04-24T00:15:23.262Z,2.10
2023-04-24T00:17:51.187Z,2.25
2023-04-24T00:20:20.064Z,2.20
2023-04-24T00:22:48.361Z,2.20
2023-04-24T00:25:16.222Z,2.40
2023-04-24T00:27:43.989Z,2.42
2023-04-24T00:30:13.679Z,2.20
2023-04-24T00:32:41.670Z,2.05
2023-04-24T00:35:10.058Z,2.33
2023-04-24T00:37:38.110Z,2.40
2023-04-24T00:40:07.409Z,2.88
2023-04-24T00:42:35.376Z,2.40
2023-04-24T00:45:04.172Z,2.35
2023-04-24T00:47:34.702Z,2.78
2023-04-24T00:50:04.002Z,2.38
2023-04-24T00:52:33.087Z,3.15
2023-04-24T00:55:01.094Z,2.45
2023-04-24T00:57:29.416Z,3.13
2023-04-24T00:59:57.524Z,2.50
2023-04-24T01:02:25.831Z,2.50
2023-04-24T01:04:55.160Z,2.50
2023-04-24T01:07:23.151Z,2.90
2023-04-24T01:09:52.349Z,2.88
2023-04-24T01:12:20.429Z,2.83
2023-04-24T01:14:48.650Z,2.50
2023-04-24T01:17:16.657Z,2.45
2023-04-24T01:19:45.960Z,2.55
2023-04-24T01:22:15.792Z,2.75
2023-04-24T01:24:43.931Z,2.97
2023-04-24T01:27:12.687Z,2.92
2023-04-24T01:29:41.183Z,3.00
2023-04-24T01:32:09.441Z,2.97
2023-04-24T01:34:37.361Z,2.88
2023-04-24T01:37:06.114Z,3.05
2023-04-24T01:39:35.318Z,2.97
2023-04-24T01:42:03.604Z,3.20
2023-04-24T01:44:32.517Z,3.45
2023-04-24T01:47:00.848Z,2.95
2023-04-24T01:49:28.975Z,2.90
2023-04-24T01:51:56.851Z,3.50
2023-04-24T01:54:24.556Z,3.00
2023-04-24T01:56:54.001Z,3.25
2023-04-24T01:59:23.688Z,3.70
2023-04-24T02:01:51.556Z,3.40
2023-04-24T02:04:19.469Z,3.65
2023-04-24T02:06:47.606Z,3.50
2023-04-24T02:09:15.429Z,3.47
2023-04-24T02:11:43.360Z,4.25
2023-04-24T02:14:12.708Z,3.97
2023-04-24T02:16:40.683Z,3.65
2023-04-24T02:19:08.808Z,3.60
2023-04-24T02:21:36.779Z,3.67
2023-04-24T02:24:04.859Z,3.53
2023-04-24T02:26:32.823Z,4.00
2023-04-24T02:29:01.022Z,3.70
2023-04-24T02:31:30.424Z,4.45
2023-04-24T02:33:58.365Z,3.80
2023-04-24T02:36:26.349Z,4.13
2023-04-24T02:38:54.085Z,4.10
2023-04-24T02:41:22.116Z,4.20
2023-04-24T02:43:50.140Z,3.58
2023-04-24T02:46:18.558Z,3.88
2023-04-24T02:48:47.824Z,3.95
2023-04-24T02:51:16.632Z,3.28
2023-04-24T02:53:44.629Z,4.15
2023-04-24T02:56:13.286Z,3.55
2023-04-24T02:58:41.108Z,3.45
2023-04-24T03:01:08.872Z,3.15
2023-04-24T03:03:36.965Z,3.10
2023-04-24T03:06:07.083Z,3.33
2023-04-24T03:08:34.904Z,2.95
2023-04-24T03:11:02.856Z,3.58
2023-04-24T03:13:31.173Z,3.33
2023-04-24T03:15:58.960Z,3.10
2023-04-24T03:18:26.852Z,3.15
2023-04-24T03:20:54.680Z,3.90
2023-04-24T03:23:23.907Z,3.85
2023-04-24T03:25:51.695Z,3.83
2023-04-24T03:28:20.828Z,3.70
2023-04-24T03:30:48.731Z,3.25
2023-04-24T03:33:16.773Z,3.70
2023-04-24T03:35:44.558Z,3.78
2023-04-24T03:38:12.325Z,3.30
2023-04-24T03:40:41.470Z,3.53
2023-04-24T03:43:09.305Z,3.50
2023-04-24T03:45:37.073Z,2.92
2023-04-24T03:48:05.127Z,2.85
2023-04-24T03:50:32.991Z,3.30
2023-04-24T03:53:00.943Z,3.08
2023-04-24T03:55:28.801Z,3.10
2023-04-24T03:57:58.066Z,2.92
2023-04-24T04:00:27.003Z,2.95
2023-04-24T04:02:55.019Z,3.10
2023-04-24T04:05:23.231Z,2.85
2023-04-24T04:07:51.101Z,3.55
2023-04-24T04:10:19.775Z,3.10
2023-04-24T04:12:47.754Z,3.28
2023-04-24T04:15:17.415Z,3.17
2023-04-24T04:17:46.794Z,3.17
2023-04-24T04:20:14.946Z,3.53
2023-04-24T04:22:44.436Z,3.30
2023-04-24T04:25:14.380Z,3.22
2023-04-24T04:27:42.617Z,3.20
2023-04-24T04:30:11.033Z,3.25
2023-04-24T04:32:40.130Z,3.08
2023-04-24T04:35:08.562Z,3.55
2023-04-24T04:37:36.392Z,3.67
2023-04-24T04:40:07.533Z,3.22
2023-04-24T04:42:36.185Z,3.28
2023-04-24T04:45:05.169Z,3.42
2023-04-24T04:47:33.532Z,3.20
2023-04-24T04:50:03.606Z,2.92
2023-04-24T04:52:31.461Z,3.20
2023-04-24T04:54:59.297Z,3.63
2023-04-24T04:57:27.255Z,3.10
2023-04-24T04:59:55.060Z,3.20
2023-04-24T05:02:22.877Z,3.20
2023-04-24T05:04:50.887Z,3.08
2023-04-24T05:07:20.685Z,3.70
2023-04-24T05:09:48.493Z,3.30
2023-04-24T05:12:16.256Z,3.47
2023-04-24T05:14:44.363Z,3.17
2023-04-24T05:17:12.504Z,4.05
2023-04-24T05:19:40.659Z,3.47
2023-04-24T05:22:08.757Z,3.17
2023-04-24T05:24:37.948Z,3.15
2023-04-24T05:27:06.719Z,3.17
2023-04-24T05:29:34.655Z,3.22
2023-04-24T05:32:02.697Z,3.15
2023-04-24T05:35:48.551Z,3.75
2023-04-24T05:38:18.826Z,3.22
2023-04-24T05:40:46.566Z,3.10
2023-04-24T05:43:14.763Z,3.80
2023-04-24T05:45:42.614Z,3.80
2023-04-24T05:48:10.484Z,3.38
2023-04-24T05:50:38.326Z,4.10
2023-04-24T05:53:08.134Z,3.95
2023-04-24T05:55:36.929Z,3.42
2023-04-24T05:58:04.811Z,4.13
2023-04-24T06:00:33.554Z,3.80
2023-04-24T06:05:29.870Z,4.40
2023-04-24T06:07:57.644Z,5.32
2023-04-24T06:10:26.861Z,4.57
2023-04-24T06:12:57.291Z,4.10
2023-04-24T06:15:25.108Z,4.13
2023-04-24T06:17:52.924Z,4.20
2023-04-24T06:20:21.030Z,4.30
2023-04-24T06:22:48.911Z,4.10
2023-04-24T06:25:17.015Z,3.80
2023-04-24T06:27:46.259Z,3.85
2023-04-24T06:30:14.609Z,4.32
2023-04-24T06:32:42.615Z,3.97
2023-04-24T06:35:10.934Z,4.13
2023-04-24T06:37:38.746Z,4.40
2023-04-24T06:40:08.751Z,4.20
2023-04-24T06:42:37.198Z,4.25
2023-04-24T06:45:07.199Z,4.30
2023-04-24T06:47:35.001Z,3.67
2023-04-24T06:50:02.861Z,3.58
2023-04-24T06:52:33.675Z,3.70
2023-04-24T06:55:03.354Z,3.60
2023-04-24T06:57:31.464Z,3.55
2023-04-24T06:59:59.287Z,4.00
2023-04-24T07:02:28.877Z,3.78
2023-04-24T07:04:57.972Z,3.38
2023-04-24T07:07:25.749Z,3.58
2023-04-24T07:09:53.514Z,3.33
2023-04-24T07:12:22.071Z,3.10
2023-04-24T07:14:49.975Z,3.50
2023-04-24T07:17:18.643Z,3.33
2023-04-24T07:19:47.857Z,3.80
2023-04-24T07:22:17.955Z,3.35
2023-04-24T07:24:46.368Z,3.65
2023-04-24T07:27:16.036Z,3.72
2023-04-24T07:29:45.178Z,3.55
2023-04-24T07:32:13.252Z,3.67
2023-04-24T07:34:41.525Z,3.42
2023-04-24T07:37:10.826Z,3.72
2023-04-24T07:39:38.647Z,3.67
2023-04-24T07:42:06.573Z,3.70
2023-04-24T07:44:34.343Z,3.75
2023-04-24T07:47:02.207Z,3.80
2023-04-24T07:49:30.034Z,3.78
2023-04-24T07:51:58.115Z,3.97
2023-04-24T07:54:27.389Z,4.00
2023-04-24T07:56:55.267Z,4.50
2023-04-24T07:59:23.171Z,4.18
2023-04-24T08:01:50.941Z,3.92
2023-04-24T08:04:19.092Z,4.50
2023-04-24T08:06:46.991Z,3.65
2023-04-24T08:09:14.803Z,3.67
2023-04-24T08:11:43.926Z,4.22
2023-04-24T08:14:13.553Z,4.47
2023-04-24T08:16:42.113Z,4.30
2023-04-24T08:19:10.636Z,4.45
2023-04-24T08:21:38.885Z,4.07
2023-04-24T08:24:08.811Z,4.07
2023-04-24T08:26:36.698Z,4.28
2023-04-24T08:29:07.557Z,3.90
2023-04-24T08:31:36.439Z,3.85
2023-04-24T08:34:04.357Z,4.38
2023-04-24T08:36:45.907Z,4.80
2023-04-24T08:39:15.867Z,3.55
2023-04-24T08:41:46.302Z,3.72
2023-04-24T08:44:17.196Z,3.80
2023-04-24T08:46:46.346Z,3.50
2023-04-24T08:49:17.248Z,3.88
2023-04-24T08:51:45.644Z,3.70
2023-04-24T08:54:14.942Z,4.10
2023-04-24T08:56:46.157Z,4.18
2023-04-24T08:59:16.068Z,4.32
2023-04-24T09:01:45.184Z,3.00
2023-04-24T09:04:16.114Z,3.40
2023-04-24T09:06:44.887Z,3.35
2023-04-24T09:09:13.598Z,3.13
2023-04-24T09:11:42.026Z,3.55
2023-04-24T09:14:12.075Z,2.90
2023-04-24T09:16:41.774Z,3.15
2023-04-24T09:19:09.640Z,3.97
2023-04-24T09:21:38.096Z,2.90
2023-04-24T09:24:19.367Z,3.22
2023-04-24T09:26:47.401Z,3.50
2023-04-24T09:29:17.950Z,3.13
2023-04-24T09:31:48.241Z,3.03
2023-04-24T09:34:16.088Z,3.40
2023-04-24T09:36:44.862Z,3.10
2023-04-24T09:39:16.778Z,3.00
2023-04-24T09:41:49.763Z,3.35
2023-04-24T09:44:21.170Z,2.85
2023-04-24T09:46:53.641Z,2.95
2023-04-24T09:49:25.178Z,3.10
2023-04-24T09:51:53.601Z,3.00
2023-04-24T09:54:23.478Z,3.22
2023-04-24T09:56:52.790Z,3.20
2023-04-24T09:59:21.777Z,2.95
2023-04-24T10:01:50.638Z,2.85
2023-04-24T10:04:21.736Z,3.08
2023-04-24T10:06:51.111Z,3.20
2023-04-24T10:09:19.926Z,3.10
2023-04-24T10:11:49.165Z,3.65
2023-04-24T10:14:18.543Z,3.42
2023-04-24T10:16:48.037Z,3.28
2023-04-24T10:19:17.286Z,3.25
2023-04-24T10:21:47.668Z,3.30
2023-04-24T10:24:16.939Z,3.22
2023-04-24T10:26:46.814Z,2.80
2023-04-24T10:29:16.630Z,3.25
2023-04-24T10:31:46.993Z,2.92
2023-04-24T10:34:17.652Z,3.00
2023-04-24T10:36:51.312Z,3.00
2023-04-24T10:39:20.651Z,3.00
2023-04-24T10:41:58.411Z,3.50
2023-04-24T10:44:27.731Z,3.13
2023-04-24T10:46:57.492Z,3.20
2023-04-24T10:49:31.292Z,3.38
2023-04-24T10:52:06.432Z,3.45
2023-04-24T10:54:37.861Z,3.20
2023-04-24T10:57:35.787Z,2.67
2023-04-24T11:00:17.300Z,2.63
2023-04-24T11:02:50.355Z,3.03
2023-04-24T11:05:19.638Z,2.85
2023-04-24T11:08:13.958Z,3.28
2023-04-24T11:10:43.124Z,3.10
2023-04-24T11:13:13.003Z,3.25
2023-04-24T11:15:44.300Z,3.42
2023-04-24T11:18:16.474Z,3.08
2023-04-24T11:20:45.349Z,3.80
2023-04-24T11:23:15.149Z,3.28
2023-04-24T11:25:43.731Z,3.45
2023-04-24T11:28:18.380Z,3.65
2023-04-24T11:30:46.205Z,3.35
2023-04-24T11:33:21.802Z,3.63
2023-04-24T11:35:49.906Z,3.70
2023-04-24T11:38:24.515Z,3.20
2023-04-24T11:40:54.198Z,3.33
2023-04-24T11:43:23.051Z,3.22
2023-04-24T11:45:51.265Z,3.33
2023-04-24T11:48:23.410Z,3.50
2023-04-24T11:50:51.697Z,8.73
2023-04-24T11:53:22.606Z,4.00
2023-04-24T11:55:50.461Z,3.50
2023-04-24T11:58:23.402Z,3.80
2023-04-24T12:00:58.386Z,3.70
2023-04-24T12:03:26.835Z,3.95
2023-04-24T12:05:55.227Z,3.83
2023-04-24T12:08:31.214Z,4.20
2023-04-24T12:11:00.333Z,3.85
2023-04-24T12:13:28.254Z,4.03
2023-04-24T12:15:56.877Z,4.38
2023-04-24T12:18:25.126Z,4.10
2023-04-24T12:20:52.997Z,5.00
2023-04-24T12:26:14.370Z,5.03
2023-04-24T12:28:42.238Z,4.47
2023-04-24T12:31:10.289Z,4.55
2023-04-24T12:33:39.748Z,4.50
2023-04-24T12:36:08.060Z,5.07
2023-04-24T12:38:41.198Z,4.95
2023-04-24T12:41:10.614Z,4.78
2023-04-24T12:43:40.110Z,4.55
2023-04-24T12:46:08.241Z,6.13
2023-04-24T12:48:36.593Z,4.60
2023-04-24T12:51:07.803Z,4.80
2023-04-24T12:53:35.824Z,5.30
2023-04-24T12:56:03.662Z,5.10
2023-04-24T12:58:31.482Z,5.22
2023-04-24T13:01:01.934Z,5.30
2023-04-24T13:03:30.002Z,5.18
2023-04-24T13:05:58.297Z,4.65
2023-04-24T13:08:26.184Z,5.60
2023-04-24T13:10:54.882Z,5.10
2023-04-24T13:13:22.868Z,4.63
2023-04-24T13:15:50.691Z,5.13
2023-04-24T13:18:19.907Z,5.07
2023-04-24T13:20:48.492Z,4.65
2023-04-24T13:23:16.852Z,5.20
2023-04-24T13:25:44.668Z,5.75
2023-04-24T13:28:12.542Z,5.13
2023-04-24T13:30:40.595Z,5.60
2023-04-24T13:33:08.362Z,4.85
2023-04-24T13:35:37.525Z,5.20
2023-04-24T13:38:07.543Z,4.95
2023-04-24T13:40:35.657Z,5.18
2023-04-24T13:43:03.834Z,4.50
2023-04-24T13:45:31.624Z,5.00
2023-04-24T13:47:59.440Z,4.72
2023-04-24T13:50:27.603Z,4.60
2023-04-24T13:52:57.754Z,4.40
2023-04-24T13:55:25.671Z,4.38
2023-04-24T13:57:56.041Z,4.28
2023-04-24T14:00:23.971Z,4.57
2023-04-24T14:02:51.913Z,4.40
2023-04-24T14:05:20.019Z,4.70
2023-04-24T14:07:47.826Z,5.18
2023-04-24T14:10:17.011Z,5.10
2023-04-24T14:12:44.813Z,5.60
2023-04-24T14:15:14.404Z,4.85
2023-04-24T14:17:42.783Z,5.07
2023-04-24T14:20:11.334Z,5.20
2023-04-24T14:22:39.101Z,4.90
2023-04-24T14:25:08.204Z,4.70
2023-04-24T14:27:37.465Z,4.50
2023-04-24T14:30:05.985Z,4.97
2023-04-24T14:32:33.836Z,5.00
2023-04-24T14:35:01.706Z,4.85
2023-04-24T14:37:29.522Z,5.10
2023-04-24T14:40:14.747Z,5.20
2023-04-24T14:42:46.630Z,5.07
2023-04-24T14:45:14.487Z,5.35
2023-04-24T14:47:42.382Z,5.97
2023-04-24T14:50:10.983Z,5.07
2023-04-24T14:52:39.385Z,4.85
2023-04-24T14:55:08.778Z,4.90
2023-04-24T14:57:38.056Z,5.20
2023-04-24T15:00:10.217Z,4.90
2023-04-24T15:02:42.921Z,5.35
2023-04-24T15:05:11.294Z,4.50
2023-04-24T15:07:39.725Z,5.22
2023-04-24T15:10:08.771Z,5.50
2023-04-24T15:12:36.859Z,5.38
2023-04-24T15:15:05.022Z,5.13
2023-04-24T15:17:34.194Z,5.18
2023-04-24T15:20:04.083Z,5.35
2023-04-24T15:22:31.791Z,5.07
2023-04-24T15:24:59.819Z,5.65
2023-04-24T15:27:27.732Z,5.60
2023-04-24T15:29:55.813Z,5.50
2023-04-24T15:32:23.602Z,5.75
2023-04-24T15:35:04.885Z,5.82
2023-04-24T15:37:36.340Z,5.53
2023-04-24T15:40:06.565Z,5.20
2023-04-24T15:42:34.493Z,5.82
2023-04-24T15:45:02.464Z,6.15
2023-04-24T15:47:30.642Z,5.57
2023-04-24T15:49:59.898Z,5.70
2023-04-24T15:52:27.873Z,5.97
2023-04-24T15:54:55.865Z,5.75
2023-04-24T15:57:23.759Z,6.03
2023-04-24T15:59:51.530Z,5.45
2023-04-24T16:02:20.980Z,6.07
2023-04-24T16:04:50.808Z,5.40
2023-04-24T16:07:20.065Z,6.25
2023-04-24T16:09:48.273Z,6.00
2023-04-24T16:12:16.146Z,5.90
2023-04-24T16:14:44.033Z,5.50
2023-04-24T16:17:11.965Z,6.13
2023-04-24T16:19:39.727Z,5.70
2023-04-24T16:22:07.601Z,5.78
2023-04-24T16:24:36.934Z,5.78
2023-04-24T16:27:04.912Z,6.00
2023-04-24T16:29:32.900Z,5.88
2023-04-24T16:32:00.833Z,6.03
2023-04-24T16:34:28.597Z,5.13
2023-04-24T16:36:57.324Z,5.72
2023-04-24T16:39:25.960Z,5.65
2023-04-24T16:41:56.628Z,5.97
2023-04-24T16:44:25.713Z,5.45
2023-04-24T16:46:53.584Z,5.53
2023-04-24T16:49:21.367Z,5.20
2023-04-24T16:51:49.214Z,5.13
2023-04-24T16:54:17.093Z,5.07
2023-04-24T16:56:44.918Z,5.57
2023-04-24T16:59:14.211Z,5.05
2023-04-24T17:01:43.879Z,6.03
2023-04-24T17:04:11.906Z,5.30
2023-04-24T17:06:39.911Z,5.05
2023-04-24T17:09:07.742Z,4.90
2023-04-24T17:11:35.576Z,4.93
2023-04-24T17:14:03.386Z,4.70
2023-04-24T17:16:33.105Z,5.05
2023-04-24T17:19:01.187Z,5.40
2023-04-24T17:21:29.356Z,4.80
2023-04-24T17:23:57.128Z,5.20
2023-04-24T17:26:25.014Z,4.90
2023-04-24T17:28:54.432Z,4.97
2023-04-24T17:31:23.312Z,5.03
2023-04-24T17:33:52.625Z,4.78
2023-04-24T17:36:20.586Z,5.05
2023-04-24T17:38:48.726Z,5.07
2023-04-24T17:41:17.079Z,4.82
2023-04-24T17:43:45.848Z,5.00
2023-04-24T17:46:14.402Z,5.22
2023-04-24T17:48:42.565Z,5.25
2023-04-24T17:51:11.817Z,9.32
2023-04-24T17:53:39.644Z,5.03
2023-04-24T17:56:08.217Z,5.15
2023-04-24T17:58:36.010Z,5.38
2023-04-24T18:01:04.068Z,5.47
2023-04-24T18:03:32.207Z,5.22
2023-04-24T18:06:00.212Z,5.03
2023-04-24T18:08:29.485Z,5.05
2023-04-24T18:10:57.326Z,5.10
2023-04-24T18:13:25.215Z,5.70
2023-04-24T18:15:53.101Z,5.78
2023-04-24T18:18:20.998Z,5.50
2023-04-24T18:20:48.816Z,4.93
2023-04-24T18:23:16.841Z,5.10
2023-04-24T18:25:46.041Z,5.63
2023-04-24T18:28:13.862Z,5.85
2023-04-24T18:30:41.619Z,5.80
2023-04-24T18:33:09.473Z,5.93
2023-04-24T18:35:37.293Z,5.50
2023-04-24T18:38:05.146Z,5.88
2023-04-24T18:40:32.843Z,6.47
2023-04-24T18:43:02.331Z,5.85
2023-04-24T18:45:30.077Z,6.35
2023-04-24T18:47:58.136Z,6.38
2023-04-24T18:50:27.678Z,5.93
2023-04-24T18:52:55.474Z,6.13
2023-04-24T18:55:23.281Z,5.75
2023-04-24T18:57:51.588Z,6.18
2023-04-24T19:00:20.797Z,6.45
2023-04-24T19:02:48.779Z,6.30
2023-04-24T19:05:16.830Z,6.40
2023-04-24T19:07:44.647Z,6.50
2023-04-24T19:10:13.231Z,6.32
2023-04-24T19:12:41.134Z,6.05
2023-04-24T19:15:11.628Z,6.25
2023-04-24T19:17:40.812Z,6.20
2023-04-24T19:20:09.557Z,5.70
2023-04-24T19:22:37.734Z,6.28
2023-04-24T19:25:06.363Z,5.82
2023-04-24T19:27:34.081Z,5.50
2023-04-24T19:30:01.892Z,5.55
2023-04-24T19:32:29.905Z,5.60
2023-04-24T19:34:59.085Z,5.57
2023-04-24T19:37:27.027Z,5.63
2023-04-24T19:39:54.959Z,5.97
2023-04-24T19:42:31.733Z,5.95
2023-04-24T19:45:04.782Z,6.18
2023-04-24T19:47:32.640Z,5.95
2023-04-24T19:50:01.797Z,6.22
2023-04-24T19:52:29.698Z,5.82
2023-04-24T19:54:57.637Z,6.50
2023-04-24T19:57:25.409Z,6.18
2023-04-24T19:59:53.181Z,6.25
2023-04-24T20:02:21.012Z,6.32
2023-04-24T20:04:49.130Z,6.22
2023-04-24T20:07:18.375Z,6.80
2023-04-24T20:09:46.121Z,6.45
2023-04-24T20:12:14.467Z,6.65
2023-04-24T20:14:42.330Z,6.85
2023-04-24T20:17:10.196Z,6.50
2023-04-24T20:19:38.940Z,6.70
2023-04-24T20:22:06.812Z,6.50
2023-04-24T20:24:35.911Z,6.10
2023-04-24T20:27:04.441Z,6.28
2023-04-24T20:29:32.279Z,6.35
2023-04-24T20:32:00.192Z,5.93
2023-04-24T20:34:28.158Z,6.05
2023-04-24T20:36:56.671Z,5.47
2023-04-24T20:39:24.421Z,5.85
2023-04-24T20:41:53.577Z,5.53
2023-04-24T20:44:21.505Z,6.65
2023-04-24T20:46:49.435Z,6.07
2023-04-24T20:49:17.277Z,5.95
2023-04-24T20:51:45.023Z,5.75
2023-04-24T20:54:12.801Z,6.68
2023-04-24T20:56:40.652Z,6.05
2023-04-24T20:59:10.090Z,5.55
2023-04-24T21:01:37.994Z,5.80
2023-04-24T21:04:06.078Z,5.60
2023-04-24T21:06:33.924Z,5.75
2023-04-24T21:09:01.726Z,5.30
2023-04-24T21:11:29.647Z,5.43
2023-04-24T21:13:57.461Z,5.80
2023-04-24T21:16:27.219Z,5.60
2023-04-24T21:18:54.941Z,5.47
2023-04-24T21:21:25.055Z,5.30
2023-04-24T21:23:52.855Z,5.38
2023-04-24T21:26:21.011Z,5.70
2023-04-24T21:28:48.877Z,4.97
2023-04-24T21:31:16.716Z,5.32
2023-04-24T21:33:46.060Z,5.05
2023-04-24T21:36:13.857Z,5.03
2023-04-24T21:38:41.714Z,5.50
2023-04-24T21:41:09.601Z,5.55
2023-04-24T21:43:44.763Z,5.40
2023-04-24T21:46:13.688Z,5.80
2023-04-24T21:48:41.587Z,5.80
2023-04-24T21:51:11.220Z,5.55
2023-04-24T21:53:39.065Z,6.53
2023-04-24T21:56:07.435Z,5.32
2023-04-24T21:58:35.973Z,6.60
2023-04-24T22:01:03.948Z,6.55
2023-04-24T22:03:31.882Z,6.10
2023-04-24T22:05:59.830Z,6.75
2023-04-24T22:08:29.054Z,6.32
2023-04-24T22:10:57.634Z,6.63
2023-04-24T22:13:25.397Z,6.25
2023-04-24T22:15:53.339Z,6.32
2023-04-24T22:18:24.504Z,6.65
2023-04-24T22:20:54.234Z,7.15
2023-04-24T22:23:22.029Z,6.70
2023-04-24T22:25:51.326Z,6.63
2023-04-24T22:28:19.104Z,6.70
2023-04-24T22:30:46.927Z,7.00
2023-04-24T22:33:14.692Z,6.95
2023-04-24T22:35:42.515Z,6.65
2023-04-24T22:38:10.258Z,6.57
2023-04-24T22:40:38.043Z,6.43
2023-04-24T22:43:07.446Z,6.45
2023-04-24T22:45:35.378Z,6.78
2023-04-24T22:48:03.385Z,6.13
2023-04-24T22:50:31.490Z,6.40
2023-04-24T22:53:24.502Z,6.50
2023-04-24T22:55:52.458Z,6.80
2023-04-24T22:58:21.640Z,7.32
2023-04-24T23:00:49.452Z,6.90
2023-04-24T23:03:17.519Z,6.55
2023-04-24T23:05:45.440Z,6.40
2023-04-24T23:08:13.369Z,6.68
2023-04-24T23:10:41.434Z,6.75
2023-04-24T23:13:09.236Z,6.95
2023-04-24T23:15:39.460Z,7.07
2023-04-24T23:18:07.437Z,7.28
2023-04-24T23:20:35.281Z,7.05
2023-04-24T23:23:03.120Z,7.00
2023-04-24T23:25:32.805Z,7.00
2023-04-24T23:28:00.807Z,6.28
2023-04-24T23:30:29.799Z,7.25
2023-04-24T23:32:59.193Z,6.57
2023-04-24T23:35:27.210Z,6.97
2023-04-24T23:37:55.867Z,6.70
2023-04-24T23:40:23.835Z,7.03
2023-04-24T23:43:03.356Z,7.28
2023-04-24T23:45:34.774Z,7.18
2023-04-24T23:48:05.151Z,7.43
2023-04-24T23:50:33.182Z,7.20
2023-04-24T23:53:01.127Z,7.85
2023-04-24T23:55:29.428Z,7.70
2023-04-24T23:57:57.341Z,7.60
